Time;durP1;ratioP1;P1;durP2;ratioP2;P2;SDS_P1;SDS_P2;PMS_P1;PMS_P2;Temp;Humidity;BMP_temperature;BMP_pressure;BME280_temperature;BME280_humidity;BME280_pressure;Samples;Min_cycle;Max_cycle;Signal;HPM_P1;HPM_P2
2023/07/03 00:02:05;;;;;;;16.15;5.32;;;16.30;99.90;;;;;;5025389;28;20037;-82
2023/07/03 00:04:35;;;;;;;30.35;7.50;;;16.30;99.90;;;;;;5026384;28;20170;-81
2023/07/03 00:07:05;;;;;;;17.52;5.80;;;16.30;99.90;;;;;;5020526;28;20587;-81
2023/07/03 00:09:31;;;;;;;16.10;4.85;;;16.30;99.90;;;;;;5022520;28;20048;-81
2023/07/03 00:11:57;;;;;;;19.55;5.97;;;16.30;99.90;;;;;;5025259;28;20135;-81
2023/07/03 00:14:23;;;;;;;15.32;5.07;;;16.30;99.90;;;;;;5023732;28;20087;-81
2023/07/03 00:16:49;;;;;;;16.60;4.90;;;16.30;99.90;;;;;;5029995;28;20033;-80
2023/07/03 00:19:15;;;;;;;18.20;5.03;;;16.30;99.90;;;;;;5026037;28;20045;-80
2023/07/03 00:21:43;;;;;;;17.83;5.20;;;16.30;99.90;;;;;;5026845;28;20041;-81
2023/07/03 00:24:13;;;;;;;16.08;5.50;;;16.30;99.90;;;;;;5028544;28;20133;-81
2023/07/03 00:26:39;;;;;;;16.42;4.88;;;16.30;99.90;;;;;;5024760;28;20052;-81
2023/07/03 00:29:05;;;;;;;17.33;5.63;;;16.30;99.90;;;;;;5026800;28;20072;-81
2023/07/03 00:31:31;;;;;;;12.18;5.10;;;16.30;99.90;;;;;;5027411;28;20050;-81
2023/07/03 00:33:58;;;;;;;15.48;5.65;;;16.20;99.90;;;;;;5031323;28;20099;-81
2023/07/03 00:36:24;;;;;;;16.27;5.57;;;16.30;99.90;;;;;;5027374;28;20045;-83
2023/07/03 00:38:50;;;;;;;17.05;5.28;;;16.20;99.90;;;;;;5022292;28;20041;-81
2023/07/03 00:41:16;;;;;;;19.10;6.22;;;16.20;99.90;;;;;;5026992;28;20041;-81
2023/07/03 00:43:42;;;;;;;18.60;5.07;;;16.20;99.90;;;;;;5028761;28;20045;-81
2023/07/03 00:46:12;;;;;;;15.50;4.85;;;16.20;99.90;;;;;;5025838;28;20046;-81
2023/07/03 00:48:39;;;;;;;17.15;5.72;;;16.20;99.90;;;;;;5027582;28;20622;-81
2023/07/03 00:51:05;;;;;;;17.70;5.80;;;16.10;99.90;;;;;;5029990;28;20046;-81
2023/07/03 00:53:31;;;;;;;20.27;5.82;;;16.10;99.90;;;;;;5028151;28;20408;-81
2023/07/03 00:55:57;;;;;;;17.70;4.85;;;16.20;99.90;;;;;;5028629;28;20038;-81
2023/07/03 00:58:22;;;;;;;21.27;6.85;;;16.10;99.90;;;;;;5028008;28;20042;-81
2023/07/03 01:01:19;;;;;;;20.95;5.57;;;16.10;99.90;;;;;;5026675;28;20057;-81
2023/07/03 01:04:10;;;;;;;20.27;5.53;;;16.10;99.90;;;;;;5027826;28;20487;-81
2023/07/03 01:06:40;;;;;;;17.92;4.90;;;16.10;99.90;;;;;;5019146;28;20146;-81
2023/07/03 01:09:10;;;;;;;19.90;6.03;;;16.10;99.90;;;;;;5021018;28;20045;-82
2023/07/03 01:11:36;;;;;;;24.10;5.88;;;16.10;99.90;;;;;;5019637;28;20050;-81
2023/07/03 01:14:04;;;;;;;21.70;4.82;;;16.10;99.90;;;;;;5018976;28;20037;-81
2023/07/03 01:16:32;;;;;;;20.58;5.75;;;16.10;99.90;;;;;;5019969;28;20059;-80
2023/07/03 01:18:59;;;;;;;20.83;5.35;;;16.10;99.90;;;;;;5038398;28;20045;-81
2023/07/03 01:21:36;;;;;;;15.90;4.78;;;16.10;99.90;;;;;;5022800;28;20081;-81
2023/07/03 01:24:10;;;;;;;18.73;5.38;;;16.10;99.90;;;;;;5023724;28;20045;-80
2023/07/03 01:26:38;;;;;;;19.85;5.28;;;16.10;99.90;;;;;;5022812;28;20052;-83
2023/07/03 01:29:05;;;;;;;17.60;5.35;;;16.10;99.90;;;;;;5022663;28;20033;-80
2023/07/03 01:31:33;;;;;;;19.13;5.88;;;16.20;99.90;;;;;;5020591;28;20137;-81
2023/07/03 01:34:00;;;;;;;20.58;5.82;;;16.10;99.90;;;;;;5024603;28;20412;-81
2023/07/03 01:36:27;;;;;;;19.92;6.50;;;16.10;99.90;;;;;;5023684;28;20041;-80
2023/07/03 01:38:54;;;;;;;15.23;4.55;;;16.10;99.90;;;;;;5024598;28;20124;-81
2023/07/03 01:41:20;;;;;;;19.55;5.95;;;16.20;99.90;;;;;;5020883;28;20037;-80
2023/07/03 01:43:46;;;;;;;22.17;4.75;;;16.20;99.90;;;;;;5023943;28;20507;-81
2023/07/03 01:46:13;;;;;;;16.83;5.32;;;16.20;99.90;;;;;;5020460;28;20060;-81
2023/07/03 01:48:39;;;;;;;15.43;4.70;;;16.10;99.90;;;;;;5025954;28;20251;-81
2023/07/03 01:51:09;;;;;;;18.15;4.90;;;16.10;99.90;;;;;;5028888;28;20051;-80
2023/07/03 01:53:44;;;;;;;16.52;5.75;;;16.10;99.90;;;;;;5027551;28;20037;-81
2023/07/03 01:56:24;;;;;;;20.75;5.25;;;16.10;99.90;;;;;;5023663;28;20122;-82
2023/07/03 01:58:55;;;;;;;19.52;4.85;;;16.10;99.90;;;;;;5024846;28;20072;-81
2023/07/03 02:01:31;;;;;;;14.45;4.75;;;16.20;99.90;;;;;;5024971;28;20049;-81
2023/07/03 02:04:14;;;;;;;16.92;5.80;;;16.10;99.90;;;;;;5020986;28;20042;-82
2023/07/03 02:06:44;;;;;;;21.25;6.25;;;16.10;99.90;;;;;;5021035;28;20091;-82
2023/07/03 02:09:10;;;;;;;20.30;5.82;;;16.10;99.90;;;;;;5025899;28;20045;-81
2023/07/03 02:11:36;;;;;;;16.48;4.63;;;16.10;99.90;;;;;;5026062;28;20069;-81
2023/07/03 02:14:02;;;;;;;18.77;4.95;;;16.10;99.90;;;;;;5020240;28;20068;-81
2023/07/03 02:16:31;;;;;;;22.20;5.53;;;16.20;99.90;;;;;;5020024;28;20124;-81
2023/07/03 02:18:58;;;;;;;17.42;4.88;;;16.20;99.90;;;;;;5020311;28;20034;-81
2023/07/03 02:21:24;;;;;;;18.02;4.43;;;16.20;99.90;;;;;;5024036;28;20134;-82
2023/07/03 02:23:49;;;;;;;16.67;4.88;;;16.10;99.90;;;;;;5020637;28;20599;-81
2023/07/03 02:26:15;;;;;;;21.23;6.30;;;16.10;99.90;;;;;;5024412;28;20141;-81
2023/07/03 02:28:41;;;;;;;18.02;4.68;;;16.10;99.90;;;;;;5027311;28;20052;-81
2023/07/03 02:31:07;;;;;;;16.85;4.70;;;16.00;99.90;;;;;;5028482;28;20045;-81
2023/07/03 02:33:32;;;;;;;19.10;4.80;;;16.00;99.90;;;;;;5022542;28;20088;-81
2023/07/03 02:36:02;;;;;;;11.10;4.70;;;16.00;99.90;;;;;;5026701;28;20108;-81
2023/07/03 02:38:28;;;;;;;18.52;5.60;;;16.10;99.90;;;;;;5025592;28;20037;-81
2023/07/03 02:40:53;;;;;;;13.63;4.03;;;16.10;99.90;;;;;;5021447;28;20053;-81
2023/07/03 02:43:19;;;;;;;18.95;5.35;;;16.10;99.90;;;;;;5028149;28;20551;-81
2023/07/03 02:45:45;;;;;;;22.02;6.68;;;16.00;99.90;;;;;;5025636;28;20045;-81
2023/07/03 02:48:11;;;;;;;16.27;4.05;;;16.10;99.90;;;;;;5027212;28;20717;-81
2023/07/03 02:50:36;;;;;;;12.65;3.75;;;16.10;99.90;;;;;;5027597;28;20484;-81
2023/07/03 02:53:02;;;;;;;15.15;4.22;;;16.10;99.90;;;;;;5024191;28;20044;-81
2023/07/03 02:55:28;;;;;;;12.57;4.28;;;16.10;99.90;;;;;;5022201;28;20048;-81
2023/07/03 02:57:55;;;;;;;9.82;2.92;;;16.00;99.90;;;;;;5033234;28;20041;-81
2023/07/03 03:00:21;;;;;;;12.60;3.33;;;16.00;99.90;;;;;;5024406;28;20392;-83
2023/07/03 03:02:47;;;;;;;13.20;2.88;;;16.00;99.90;;;;;;5021020;28;20143;-81
2023/07/03 03:05:13;;;;;;;9.27;2.42;;;16.00;99.90;;;;;;5026504;28;20118;-81
2023/07/03 03:07:39;;;;;;;13.80;2.30;;;15.90;99.90;;;;;;5025270;28;20073;-81
2023/07/03 03:10:05;;;;;;;9.00;3.28;;;15.90;99.90;;;;;;5023369;28;20420;-81
2023/07/03 03:12:31;;;;;;;14.48;3.08;;;15.90;99.90;;;;;;5023350;28;20037;-81
2023/07/03 03:14:56;;;;;;;9.25;3.08;;;15.90;99.90;;;;;;5022487;28;20037;-82
2023/07/03 03:17:22;;;;;;;9.70;1.92;;;15.90;99.90;;;;;;5023506;28;20117;-82
2023/07/03 03:19:48;;;;;;;15.70;3.40;;;15.90;99.90;;;;;;5025052;28;20081;-81
2023/07/03 03:22:13;;;;;;;8.27;1.77;;;15.80;99.90;;;;;;5027396;28;20046;-80
2023/07/03 03:24:39;;;;;;;8.45;1.83;;;15.80;99.90;;;;;;5031240;28;20040;-82
2023/07/03 03:27:06;;;;;;;10.65;2.88;;;15.80;99.90;;;;;;5027665;28;20069;-82
2023/07/03 03:29:38;;;;;;;8.10;2.15;;;15.70;99.90;;;;;;5031576;28;20059;-81
2023/07/03 03:32:04;;;;;;;7.78;2.40;;;15.70;99.90;;;;;;5025992;28;20453;-81
2023/07/03 03:34:32;;;;;;;7.35;1.83;;;15.60;99.90;;;;;;5027524;28;20085;-81
2023/07/03 03:36:58;;;;;;;8.65;1.65;;;15.60;99.90;;;;;;5024912;28;20034;-82
2023/07/03 03:39:23;;;;;;;9.82;1.40;;;15.50;99.90;;;;;;5029115;28;20048;-81
2023/07/03 03:41:49;;;;;;;12.70;1.50;;;15.40;99.90;;;;;;5027866;28;20037;-81
2023/07/03 03:44:15;;;;;;;7.63;1.98;;;15.50;99.90;;;;;;5030598;28;20045;-81
2023/07/03 03:46:40;;;;;;;12.80;2.67;;;15.50;99.90;;;;;;5032694;28;20053;-81
2023/07/03 03:49:09;;;;;;;9.43;1.40;;;15.40;99.90;;;;;;5026668;28;20053;-82
2023/07/03 03:51:34;;;;;;;10.52;1.95;;;15.40;99.90;;;;;;5029037;28;20163;-82
2023/07/03 03:54:00;;;;;;;8.88;1.42;;;15.40;99.90;;;;;;5026278;28;20073;-82
2023/07/03 03:56:25;;;;;;;4.43;1.05;;;15.30;99.90;;;;;;5025198;28;20046;-82
2023/07/03 03:58:51;;;;;;;8.00;1.00;;;15.30;99.90;;;;;;5030823;28;20400;-81
2023/07/03 04:01:16;;;;;;;7.18;1.48;;;15.30;99.90;;;;;;5033715;28;20048;-81
2023/07/03 04:03:42;;;;;;;9.88;1.80;;;15.30;99.90;;;;;;5027592;28;20120;-81
2023/07/03 04:06:09;;;;;;;7.97;1.20;;;15.30;99.90;;;;;;5025483;28;20030;-81
2023/07/03 04:08:35;;;;;;;6.40;1.33;;;15.30;99.90;;;;;;5028418;28;20144;-81
2023/07/03 04:11:01;;;;;;;7.82;1.83;;;15.30;99.90;;;;;;5030169;28;20095;-81
2023/07/03 04:13:27;;;;;;;6.65;1.38;;;15.40;99.90;;;;;;5047684;28;20049;-81
2023/07/03 04:15:53;;;;;;;8.07;1.73;;;15.30;99.90;;;;;;5034170;28;20045;-81
2023/07/03 04:18:20;;;;;;;5.43;1.02;;;15.30;99.90;;;;;;5013044;28;20044;-81
2023/07/03 04:20:46;;;;;;;7.72;1.40;;;15.40;99.90;;;;;;5031224;28;20034;-81
2023/07/03 04:23:12;;;;;;;8.52;1.70;;;15.60;99.90;;;;;;5033268;28;20520;-81
2023/07/03 04:25:38;;;;;;;5.45;1.38;;;15.80;99.90;;;;;;5032705;28;20046;-81
2023/07/03 04:28:04;;;;;;;10.63;2.15;;;16.00;99.90;;;;;;5016383;28;20045;-81
2023/07/03 04:30:29;;;;;;;5.72;1.70;;;16.30;99.90;;;;;;5027799;28;20041;-81
2023/07/03 04:32:55;;;;;;;7.25;1.33;;;17.10;99.90;;;;;;5025620;28;20491;-81
2023/07/03 04:35:22;;;;;;;4.82;0.93;;;18.30;99.90;;;;;;5021991;28;20435;-81
2023/07/03 04:37:47;;;;;;;6.18;1.60;;;19.40;99.90;;;;;;5031103;28;20060;-81
2023/07/03 04:40:13;;;;;;;7.90;1.83;;;20.40;99.90;;;;;;5023995;28;20038;-80
2023/07/03 04:42:39;;;;;;;6.50;1.65;;;21.00;99.90;;;;;;5026662;28;20037;-81
2023/07/03 04:45:07;;;;;;;8.77;2.17;;;21.40;99.90;;;;;;5024441;28;20045;-80
2023/07/03 04:47:37;;;;;;;5.50;1.40;;;22.00;99.90;;;;;;5019878;28;20042;-80
2023/07/03 04:50:08;;;;;;;8.85;1.42;;;22.40;99.90;;;;;;5025202;28;20411;-79
2023/07/03 04:52:36;;;;;;;7.03;1.27;;;22.80;99.60;;;;;;5022734;28;20124;-79
2023/07/03 04:55:02;;;;;;;6.65;2.25;;;23.20;98.70;;;;;;5020822;28;20042;-80
2023/07/03 04:57:28;;;;;;;5.70;1.50;;;23.30;98.30;;;;;;5010728;28;20033;-79
2023/07/03 04:59:55;;;;;;;7.20;2.25;;;23.70;97.80;;;;;;5023890;28;20399;-80
2023/07/03 05:02:21;;;;;;;7.45;1.92;;;24.10;97.30;;;;;;5022028;28;20503;-81
2023/07/03 05:04:47;;;;;;;6.65;1.70;;;24.00;96.90;;;;;;5023134;28;20041;-81
2023/07/03 05:07:13;;;;;;;7.03;1.40;;;23.90;96.90;;;;;;5022950;28;20447;-82
2023/07/03 05:09:40;;;;;;;6.57;1.85;;;24.10;96.80;;;;;;5010062;28;20029;-80
2023/07/03 05:12:06;;;;;;;8.02;2.20;;;23.90;96.60;;;;;;5025706;28;20057;-80
2023/07/03 05:14:31;;;;;;;5.88;1.52;;;23.60;96.60;;;;;;5022413;28;20091;-81
2023/07/03 05:16:57;;;;;;;7.90;1.73;;;23.00;96.90;;;;;;5013575;28;20105;-80
2023/07/03 05:19:22;;;;;;;4.70;1.25;;;22.30;97.30;;;;;;5008472;28;20051;-81
2023/07/03 05:21:48;;;;;;;6.93;1.40;;;22.00;97.70;;;;;;5025507;28;20093;-81
2023/07/03 05:24:13;;;;;;;6.57;1.55;;;22.30;98.00;;;;;;5026945;28;20133;-82
2023/07/03 05:26:39;;;;;;;4.72;1.48;;;22.80;97.30;;;;;;5022236;28;20041;-81
2023/07/03 05:29:05;;;;;;;7.30;2.17;;;23.20;97.30;;;;;;5023032;28;20142;-82
2023/07/03 05:31:31;;;;;;;5.32;1.52;;;23.50;96.90;;;;;;5025135;28;20030;-82
2023/07/03 05:33:56;;;;;;;7.75;1.95;;;23.20;96.80;;;;;;5025692;28;20820;-82
2023/07/03 05:36:22;;;;;;;8.93;2.10;;;22.80;96.90;;;;;;5031915;28;20044;-82
2023/07/03 05:38:47;;;;;;;13.00;1.52;;;22.70;97.60;;;;;;5024791;28;20041;-82
2023/07/03 05:41:14;;;;;;;6.43;1.67;;;22.50;97.70;;;;;;5030133;28;20097;-81
2023/07/03 05:43:40;;;;;;;8.77;2.00;;;22.60;98.20;;;;;;5028407;28;20491;-82
2023/07/03 05:46:05;;;;;;;10.07;1.80;;;22.60;97.50;;;;;;5025740;28;20064;-81
2023/07/03 05:48:31;;;;;;;7.38;1.80;;;22.40;98.00;;;;;;5025487;28;20044;-82
2023/07/03 05:50:57;;;;;;;8.25;1.80;;;22.00;97.90;;;;;;5030113;28;20124;-82
2023/07/03 05:53:22;;;;;;;7.07;2.15;;;21.90;98.00;;;;;;5024954;28;20045;-82
2023/07/03 05:55:58;;;;;;;8.10;2.05;;;21.80;98.40;;;;;;5028853;28;20058;-82
2023/07/03 05:58:25;;;;;;;8.73;2.00;;;22.00;98.80;;;;;;5015276;28;20053;-82
2023/07/03 06:00:51;;;;;;;8.00;2.42;;;21.90;98.20;;;;;;5028472;28;20407;-82
2023/07/03 06:03:18;;;;;;;7.47;1.88;;;22.00;98.70;;;;;;5024927;28;20063;-82
2023/07/03 06:05:44;;;;;;;7.43;2.03;;;22.00;98.60;;;;;;5023831;28;20408;-82
2023/07/03 06:08:10;;;;;;;10.90;2.83;;;21.90;99.00;;;;;;5023194;28;20034;-82
2023/07/03 06:10:36;;;;;;;9.32;1.83;;;21.90;99.10;;;;;;5024203;28;20061;-81
2023/07/03 06:13:04;;;;;;;8.77;1.83;;;21.70;98.90;;;;;;5019609;28;20040;-81
2023/07/03 06:15:30;;;;;;;9.18;1.67;;;21.70;99.10;;;;;;5024344;28;20103;-82
2023/07/03 06:17:56;;;;;;;13.07;2.17;;;21.70;99.40;;;;;;5024841;28;20037;-82
2023/07/03 06:20:22;;;;;;;7.15;1.80;;;21.50;99.30;;;;;;5022200;28;20408;-82
2023/07/03 06:22:48;;;;;;;6.38;1.63;;;21.60;99.30;;;;;;5024300;28;20049;-81
2023/07/03 06:25:13;;;;;;;8.98;1.95;;;21.70;99.20;;;;;;5027324;28;20037;-82
2023/07/03 06:27:39;;;;;;;13.05;2.70;;;21.90;99.50;;;;;;5023741;28;20209;-81
2023/07/03 06:30:08;;;;;;;13.55;1.92;;;22.20;99.30;;;;;;5025400;28;20053;-81
2023/07/03 06:32:33;;;;;;;10.88;2.58;;;22.00;98.80;;;;;;5023948;28;20049;-81
2023/07/03 06:34:59;;;;;;;12.65;2.50;;;21.60;98.50;;;;;;5033564;28;20101;-81
2023/07/03 06:37:24;;;;;;;9.88;1.75;;;21.40;98.30;;;;;;5026787;28;20048;-81
2023/07/03 06:39:50;;;;;;;7.95;1.88;;;21.20;98.70;;;;;;5028460;28;20396;-81
2023/07/03 06:42:15;;;;;;;9.18;1.88;;;20.90;98.80;;;;;;5027999;28;20464;-82
2023/07/03 06:44:43;;;;;;;6.88;1.63;;;20.50;98.80;;;;;;5024010;28;20180;-81
2023/07/03 06:47:09;;;;;;;10.02;1.70;;;20.10;99.20;;;;;;5025499;28;20044;-81
2023/07/03 06:49:36;;;;;;;9.80;2.20;;;20.20;99.70;;;;;;5024939;28;20112;-81
2023/07/03 06:52:02;;;;;;;9.60;1.65;;;20.30;99.80;;;;;;5030506;28;20037;-81
2023/07/03 06:54:27;;;;;;;8.60;1.80;;;20.60;99.90;;;;;;5031246;28;20049;-81
2023/07/03 06:56:53;;;;;;;8.40;1.55;;;21.00;99.80;;;;;;5032592;28;20123;-81
2023/07/03 06:59:18;;;;;;;4.97;1.55;;;21.20;99.30;;;;;;5030945;28;20065;-82
2023/07/03 07:01:44;;;;;;;10.43;1.40;;;21.40;99.00;;;;;;5036778;28;20076;-81
2023/07/03 07:04:11;;;;;;;15.43;1.88;;;21.40;98.10;;;;;;5032736;28;20079;-81
2023/07/03 07:06:39;;;;;;;8.75;1.73;;;21.10;97.90;;;;;;5033325;28;20049;-81
2023/07/03 07:09:04;;;;;;;11.00;1.83;;;20.80;97.80;;;;;;5035463;28;20049;-81
2023/07/03 07:11:34;;;;;;;11.02;1.50;;;21.10;98.50;;;;;;5028482;28;20052;-81
2023/07/03 07:14:01;;;;;;;6.10;1.50;;;20.80;98.60;;;;;;5035752;28;20128;-81
2023/07/03 07:16:32;;;;;;;6.88;2.13;;;20.80;98.60;;;;;;5031722;28;20041;-82
2023/07/03 07:19:01;;;;;;;5.55;1.15;;;20.60;98.50;;;;;;5027157;28;20037;-82
2023/07/03 07:21:28;;;;;;;11.00;1.92;;;20.80;98.20;;;;;;5032320;28;20048;-81
2023/07/03 07:23:56;;;;;;;6.18;1.52;;;21.10;98.30;;;;;;5015505;28;20483;-81
2023/07/03 07:26:23;;;;;;;6.82;1.23;;;21.40;98.10;;;;;;5030755;28;20050;-82
2023/07/03 07:28:49;;;;;;;7.68;1.38;;;21.80;98.10;;;;;;5028545;28;20056;-81
2023/07/03 07:31:23;;;;;;;7.88;1.83;;;22.20;97.70;;;;;;5031011;28;20050;-82
2023/07/03 07:33:48;;;;;;;12.98;2.00;;;22.20;97.20;;;;;;5034261;28;20127;-81
2023/07/03 07:36:15;;;;;;;6.22;1.60;;;21.80;96.50;;;;;;5033027;28;20061;-82
2023/07/03 07:38:41;;;;;;;6.15;1.92;;;21.70;96.70;;;;;;5016168;28;20055;-81
2023/07/03 07:41:07;;;;;;;5.40;1.70;;;21.30;97.40;;;;;;5029669;28;20128;-81
2023/07/03 07:43:33;;;;;;;9.15;1.58;;;21.10;97.90;;;;;;5031248;28;20073;-81
2023/07/03 07:45:58;;;;;;;7.57;1.63;;;20.80;97.80;;;;;;5030472;28;20080;-81
2023/07/03 07:48:26;;;;;;;7.43;1.30;;;20.60;97.90;;;;;;5038454;28;20119;-81
2023/07/03 07:50:51;;;;;;;5.80;1.40;;;20.40;98.70;;;;;;5024988;28;20041;-80
2023/07/03 07:53:17;;;;;;;5.22;1.05;;;20.30;98.50;;;;;;5027275;28;20045;-82
2023/07/03 07:55:43;;;;;;;7.85;1.30;;;20.00;98.40;;;;;;5032943;28;20435;-81
2023/07/03 07:58:08;;;;;;;6.30;1.42;;;19.80;98.70;;;;;;5025273;28;20484;-82
2023/07/03 08:00:34;;;;;;;8.13;1.25;;;19.60;98.70;;;;;;5033789;28;20041;-81
2023/07/03 08:03:00;;;;;;;8.48;1.05;;;19.50;99.20;;;;;;5032028;28;20030;-81
2023/07/03 08:05:25;;;;;;;5.65;0.82;;;19.40;99.30;;;;;;5027923;28;20116;-81
2023/07/03 08:07:52;;;;;;;5.72;1.02;;;19.20;99.60;;;;;;5028642;28;20033;-81
2023/07/03 08:10:18;;;;;;;2.83;1.00;;;19.20;99.90;;;;;;5030278;28;20056;-81
2023/07/03 08:12:44;;;;;;;5.63;1.55;;;19.20;99.90;;;;;;5026944;28;20133;-80
2023/07/03 08:15:11;;;;;;;2.92;0.70;;;19.20;99.90;;;;;;5028466;28;20042;-81
2023/07/03 08:17:36;;;;;;;8.55;1.30;;;19.10;99.90;;;;;;5027703;28;20678;-81
2023/07/03 08:20:02;;;;;;;6.85;1.90;;;19.20;99.90;;;;;;5032359;28;20124;-81
2023/07/03 08:22:28;;;;;;;6.55;1.27;;;19.20;99.90;;;;;;5033362;28;20419;-81
2023/07/03 08:24:53;;;;;;;4.97;1.27;;;19.10;99.90;;;;;;5029502;28;20042;-80
2023/07/03 08:27:19;;;;;;;8.13;1.40;;;19.20;99.50;;;;;;5031858;28;20057;-81
2023/07/03 08:29:46;;;;;;;5.78;1.15;;;19.10;99.30;;;;;;5029286;28;20091;-81
2023/07/03 08:32:12;;;;;;;3.85;0.63;;;19.10;99.30;;;;;;5026000;28;20041;-82
2023/07/03 08:34:37;;;;;;;7.63;0.98;;;19.00;99.60;;;;;;5023745;28;20042;-81
2023/07/03 08:37:03;;;;;;;3.03;0.70;;;19.00;99.90;;;;;;5030118;28;20040;-82
2023/07/03 08:39:29;;;;;;;5.40;1.08;;;18.90;99.50;;;;;;5030580;28;20095;-81
2023/07/03 08:42:17;;;;;;;6.82;0.88;;;18.80;99.50;;;;;;5020013;28;20041;-81
2023/07/03 08:44:42;;;;;;;8.07;1.10;;;18.60;99.90;;;;;;5029588;28;20068;-81
2023/07/03 08:47:15;;;;;;;5.10;0.98;;;18.40;99.90;;;;;;5025967;28;20084;-81
2023/07/03 08:49:43;;;;;;;5.63;1.42;;;18.30;99.90;;;;;;5026967;28;20044;-80
2023/07/03 08:52:09;;;;;;;4.63;1.02;;;18.10;99.90;;;;;;5026106;28;20033;-80
2023/07/03 08:54:37;;;;;;;5.03;0.93;;;17.80;99.90;;;;;;5024997;28;20041;-80
2023/07/03 08:57:04;;;;;;;6.80;1.92;;;17.70;99.90;;;;;;5030674;28;20409;-80
2023/07/03 08:59:30;;;;;;;6.70;0.85;;;17.50;99.90;;;;;;5022527;28;20057;-80
2023/07/03 09:02:30;;;;;;;2.70;0.70;;;17.30;99.90;;;;;;5023771;28;20068;-79
2023/07/03 09:05:32;;;;;;;9.00;1.48;;;17.20;99.90;;;;;;5023430;28;20064;-80
2023/07/03 09:08:05;;;;;;;6.70;1.02;;;17.20;99.90;;;;;;5026388;28;20051;-80
2023/07/03 09:10:42;;;;;;;8.55;1.10;;;17.40;99.90;;;;;;5022116;28;20077;-80
2023/07/03 09:13:14;;;;;;;6.93;1.30;;;17.90;99.90;;;;;;5027035;28;20045;-81
2023/07/03 09:15:52;;;;;;;6.90;1.48;;;18.50;99.90;;;;;;5022294;28;20049;-81
2023/07/03 09:18:24;;;;;;;6.93;1.42;;;19.10;99.90;;;;;;5011738;28;20046;-80
2023/07/03 09:20:50;;;;;;;9.13;1.10;;;19.20;99.90;;;;;;5024223;28;20045;-80
2023/07/03 09:23:27;;;;;;;5.35;1.10;;;19.20;99.90;;;;;;5027220;28;20045;-81
2023/07/03 09:26:26;;;;;;;4.78;1.00;;;19.50;99.90;;;;;;5028363;28;20112;-81
2023/07/03 09:28:57;;;;;;;8.45;1.17;;;19.70;99.90;;;;;;4997973;28;20081;-81
2023/07/03 09:31:24;;;;;;;6.20;1.13;;;20.00;99.90;;;;;;5029347;28;20056;-80
2023/07/03 09:33:49;;;;;;;9.25;1.52;;;20.40;99.90;;;;;;5024172;28;20116;-80
2023/07/03 09:36:30;;;;;;;7.18;1.25;;;20.80;99.90;;;;;;5004397;28;20124;-81
2023/07/03 09:38:56;;;;;;;4.80;0.70;;;20.90;99.90;;;;;;5026925;28;20045;-81
2023/07/03 09:41:29;;;;;;;5.35;1.13;;;20.90;99.90;;;;;;5028257;28;20386;-81
2023/07/03 09:43:56;;;;;;;3.75;0.70;;;20.70;99.90;;;;;;5027145;28;20038;-81
2023/07/03 09:46:22;;;;;;;7.72;1.00;;;20.50;99.90;;;;;;5023280;28;20077;-81
2023/07/03 09:48:48;;;;;;;7.88;1.25;;;20.60;99.90;;;;;;5027555;28;20129;-81
2023/07/03 09:51:24;;;;;;;7.22;0.75;;;20.80;99.90;;;;;;5025881;28;20141;-81
2023/07/03 09:53:50;;;;;;;6.72;0.80;;;21.00;99.00;;;;;;5024713;28;20044;-81
2023/07/03 09:56:20;;;;;;;3.13;0.63;;;21.00;98.50;;;;;;5037055;28;20039;-81
2023/07/03 09:58:48;;;;;;;5.80;0.93;;;20.80;98.20;;;;;;5027387;28;20056;-81
2023/07/03 10:01:24;;;;;;;4.50;0.90;;;20.80;99.30;;;;;;5025698;28;20037;-81
2023/07/03 10:04:05;;;;;;;3.33;0.60;;;20.50;98.30;;;;;;5010926;28;20042;-81
2023/07/03 10:06:30;;;;;;;5.53;0.80;;;20.70;98.30;;;;;;5009841;28;20049;-82
2023/07/03 10:09:01;;;;;;;13.23;1.10;;;20.70;98.70;;;;;;5009276;28;20092;-81
2023/07/03 10:11:36;;;;;;;10.82;1.40;;;20.70;97.70;;;;;;5015848;28;20076;-81
2023/07/03 10:14:05;;;;;;;4.15;0.77;;;20.70;98.50;;;;;;5027200;28;20037;-81
2023/07/03 10:16:33;;;;;;;5.43;0.70;;;20.60;98.10;;;;;;5010509;28;20038;-82
2023/07/03 10:18:59;;;;;;;15.00;1.95;;;20.40;97.80;;;;;;5030814;28;20487;-82
2023/07/03 10:21:26;;;;;;;7.97;1.15;;;20.10;96.90;;;;;;5049996;28;20046;-81
2023/07/03 10:23:52;;;;;;;4.35;0.80;;;20.10;97.70;;;;;;5030762;28;20029;-82
2023/07/03 10:26:21;;;;;;;9.13;1.00;;;20.00;98.00;;;;;;5032748;28;20041;-81
2023/07/03 10:29:02;;;;;;;8.38;1.30;;;20.00;98.10;;;;;;5025949;28;20095;-81
2023/07/03 10:31:41;;;;;;;6.85;0.68;;;20.10;98.90;;;;;;5030096;28;20058;-81
2023/07/03 10:34:16;;;;;;;6.45;1.27;;;20.50;98.20;;;;;;5031798;28;20068;-81
2023/07/03 10:36:44;;;;;;;4.10;0.63;;;20.80;97.80;;;;;;5026641;28;20037;-80
2023/07/03 10:39:47;;;;;;;6.30;0.90;;;21.20;98.10;;;;;;5034124;28;20091;-81
2023/07/03 10:42:26;;;;;;;7.95;1.27;;;21.60;97.40;;;;;;4986590;28;20049;-81
2023/07/03 10:45:06;;;;;;;5.40;0.80;;;21.70;96.70;;;;;;5019235;28;20124;-81
2023/07/03 10:47:47;;;;;;;8.30;1.35;;;21.60;95.90;;;;;;5038098;28;20088;-81
2023/07/03 10:50:13;;;;;;;6.32;0.80;;;21.50;95.90;;;;;;5027301;28;20427;-81
2023/07/03 10:52:48;;;;;;;6.00;1.27;;;21.60;96.10;;;;;;5034763;28;20046;-81
2023/07/03 10:55:43;;;;;;;11.20;1.42;;;21.60;96.10;;;;;;5030565;28;20034;-81
2023/07/03 10:58:22;;;;;;;3.97;0.67;;;21.70;96.00;;;;;;5024430;28;20038;-81
2023/07/03 11:01:13;;;;;;;15.38;1.45;;;22.00;95.90;;;;;;5024699;28;20110;-80
2023/07/03 11:03:54;;;;;;;5.72;0.70;;;21.90;93.50;;;;;;5030091;28;20042;-81
2023/07/03 11:06:34;;;;;;;22.70;1.92;;;21.70;94.20;;;;;;5030931;28;20049;-81
2023/07/03 11:09:16;;;;;;;13.85;1.23;;;21.50;94.40;;;;;;5025328;28;20041;-81
2023/07/03 11:11:58;;;;;;;9.38;1.05;;;21.00;94.40;;;;;;5027123;28;20476;-81
2023/07/03 11:15:03;;;;;;;8.70;0.90;;;20.80;95.00;;;;;;5028612;28;20038;-82
2023/07/03 11:17:45;;;;;;;4.03;0.73;;;20.40;95.20;;;;;;5031907;28;20041;-81
2023/07/03 11:20:35;;;;;;;8.98;1.00;;;20.20;96.50;;;;;;5028635;28;20042;-80
2023/07/03 11:23:12;;;;;;;8.43;1.27;;;20.10;96.60;;;;;;5030446;28;20031;-81
2023/07/03 11:25:49;;;;;;;12.45;1.13;;;20.00;96.70;;;;;;5015908;28;20061;-81
2023/07/03 11:28:32;;;;;;;5.57;0.80;;;19.90;96.90;;;;;;5030093;28;20029;-82
2023/07/03 11:31:01;;;;;;;3.63;0.65;;;19.80;97.50;;;;;;5025831;28;20103;-82
2023/07/03 11:33:29;;;;;;;12.55;1.30;;;19.90;97.90;;;;;;5042146;28;20045;-81
2023/07/03 11:35:57;;;;;;;13.18;1.17;;;20.20;96.80;;;;;;5026337;28;20046;-81
2023/07/03 11:38:25;;;;;;;7.82;0.90;;;20.50;95.80;;;;;;5027333;28;20038;-82
2023/07/03 11:41:01;;;;;;;6.18;0.85;;;20.70;95.90;;;;;;5034161;28;20041;-81
2023/07/03 11:43:30;;;;;;;13.50;1.10;;;20.70;95.50;;;;;;5012588;28;20048;-81
2023/07/03 11:45:56;;;;;;;8.95;1.55;;;20.80;95.90;;;;;;5034153;28;20605;-83
2023/07/03 11:48:46;;;;;;;11.25;1.08;;;21.00;96.30;;;;;;5029821;28;20041;-82
2023/07/03 11:51:30;;;;;;;6.88;1.20;;;21.40;95.80;;;;;;5010916;28;20038;-81
2023/07/03 11:53:57;;;;;;;3.25;0.60;;;21.60;95.60;;;;;;5025759;28;20042;-82
2023/07/03 11:56:44;;;;;;;15.25;0.90;;;21.70;95.60;;;;;;5023488;28;20045;-81
2023/07/03 11:59:23;;;;;;;9.70;1.15;;;21.50;94.50;;;;;;5030986;28;20087;-81
2023/07/03 12:01:49;;;;;;;13.23;1.35;;;21.20;94.00;;;;;;5012777;28;20044;-81
2023/07/03 12:04:47;;;;;;;15.80;1.50;;;21.00;94.20;;;;;;5031445;28;20068;-82
2023/07/03 12:07:19;;;;;;;15.85;1.83;;;21.10;95.40;;;;;;5016910;28;20044;-81
2023/07/03 12:10:17;;;;;;;12.30;1.13;;;21.10;94.20;;;;;;5026804;28;20045;-81
2023/07/03 12:12:44;;;;;;;11.95;0.98;;;21.10;95.00;;;;;;5034759;28;20041;-81
2023/07/03 12:15:12;;;;;;;14.18;1.30;;;21.00;95.00;;;;;;5031278;28;20048;-82
2023/07/03 12:17:38;;;;;;;5.78;0.90;;;20.90;94.20;;;;;;5034352;28;20036;-81
2023/07/03 12:20:12;;;;;;;11.45;0.90;;;20.60;93.90;;;;;;5032355;28;20037;-81
2023/07/03 12:22:43;;;;;;;16.92;1.73;;;20.50;94.60;;;;;;5017017;28;20037;-82
2023/07/03 12:25:12;;;;;;;7.88;1.08;;;20.30;94.80;;;;;;5027093;28;20033;-81
2023/07/03 12:27:39;;;;;;;13.00;1.05;;;20.20;95.40;;;;;;5017383;28;20041;-81
2023/07/03 12:30:09;;;;;;;11.45;1.48;;;20.20;95.30;;;;;;5024760;28;20336;-82
2023/07/03 12:32:36;;;;;;;7.35;1.02;;;20.10;95.00;;;;;;5018345;28;20033;-81
2023/07/03 12:35:18;;;;;;;11.02;1.40;;;19.90;94.90;;;;;;5033424;28;20049;-81
2023/07/03 12:37:51;;;;;;;5.38;0.90;;;19.70;94.10;;;;;;5028003;28;20042;-81
2023/07/03 12:40:19;;;;;;;8.90;1.05;;;19.60;94.80;;;;;;5050055;28;20060;-81
2023/07/03 12:42:55;;;;;;;3.83;0.65;;;19.50;94.50;;;;;;5018340;28;20431;-79
2023/07/03 12:45:30;;;;;;;5.13;1.17;;;19.40;95.20;;;;;;5031012;28;20071;-80
2023/07/03 12:48:07;;;;;;;7.22;0.88;;;19.40;95.70;;;;;;5026584;28;20480;-80
2023/07/03 12:50:48;;;;;;;8.85;0.73;;;19.30;95.70;;;;;;5023682;28;20049;-80
2023/07/03 12:53:14;;;;;;;11.52;1.30;;;19.30;95.70;;;;;;5033069;28;20042;-80
2023/07/03 12:55:44;;;;;;;13.52;0.90;;;19.20;95.90;;;;;;5012019;28;20136;-81